sensor_id;sensor_type;location;lat;lon;timestamp;temperature;humidity
7028;DHT22;3555;53.248;10.336;2023-03-03T00:01:01;3.70;1.00
7028;DHT22;3555;53.248;10.336;2023-03-03T00:03:28;3.70;97.20
7028;DHT22;3555;53.248;10.336;2023-03-03T00:05:56;3.70;50.80
7028;DHT22;3555;53.248;10.336;2023-03-03T00:08:24;3.80;1.00
7028;DHT22;3555;53.248;10.336;2023-03-03T00:10:51;3.90;1.00
7028;DHT22;3555;53.248;10.336;2023-03-03T00:13:21;3.80;1.00
7028;DHT22;3555;53.248;10.336;2023-03-03T00:15:48;3.80;1.00
7028;DHT22;3555;53.248;10.336;2023-03-03T00:18:25;3.80;2.80
7028;DHT22;3555;53.248;10.336;2023-03-03T00:20:56;3.90;1.00
7028;DHT22;3555;53.248;10.336;2023-03-03T00:23:30;3.80;1.00
7028;DHT22;3555;53.248;10.336;2023-03-03T00:26:01;3.70;1.00
7028;DHT22;3555;53.248;10.336;2023-03-03T00:28:29;3.90;1.00
7028;DHT22;3555;53.248;10.336;2023-03-03T00:30:58;3.70;99.90
7028;DHT22;3555;53.248;10.336;2023-03-03T00:33:29;3.40;1.00
7028;DHT22;3555;53.248;10.336;2023-03-03T00:36:10;3.40;1.00
7028;DHT22;3555;53.248;10.336;2023-03-03T00:38:48;3.50;1.00
7028;DHT22;3555;53.248;10.336;2023-03-03T00:41:21;3.60;99.90
7028;DHT22;3555;53.248;10.336;2023-03-03T00:43:49;3.60;99.90
7028;DHT22;3555;53.248;10.336;2023-03-03T00:46:18;3.70;99.90
7028;DHT22;3555;53.248;10.336;2023-03-03T00:48:46;3.80;24.80
7028;DHT22;3555;53.248;10.336;2023-03-03T00:51:25;3.80;1.00
7028;DHT22;3555;53.248;10.336;2023-03-03T00:53:54;3.90;1.00
7028;DHT22;3555;53.248;10.336;2023-03-03T00:56:21;3.90;1.00
7028;DHT22;3555;53.248;10.336;2023-03-03T00:58:48;3.90;1.00
7028;DHT22;3555;53.248;10.336;2023-03-03T01:01:16;3.90;1.00
7028;DHT22;3555;53.248;10.336;2023-03-03T01:03:43;4.10;1.00
7028;DHT22;3555;53.248;10.336;2023-03-03T01:06:11;3.90;1.00
7028;DHT22;3555;53.248;10.336;2023-03-03T01:08:40;4.00;1.00
7028;DHT22;3555;53.248;10.336;2023-03-03T01:11:09;3.90;1.00
7028;DHT22;3555;53.248;10.336;2023-03-03T01:13:39;3.90;1.00
7028;DHT22;3555;53.248;10.336;2023-03-03T01:16:06;3.80;1.00
7028;DHT22;3555;53.248;10.336;2023-03-03T01:18:34;3.80;1.00
7028;DHT22;3555;53.248;10.336;2023-03-03T01:21:01;3.80;1.00
7028;DHT22;3555;53.248;10.336;2023-03-03T01:23:28;3.80;1.00
7028;DHT22;3555;53.248;10.336;2023-03-03T01:25:56;3.80;1.00
7028;DHT22;3555;53.248;10.336;2023-03-03T01:28:23;3.80;99.90
7028;DHT22;3555;53.248;10.336;2023-03-03T01:30:50;3.70;99.90
7028;DHT22;3555;53.248;10.336;2023-03-03T01:33:17;3.80;1.00
7028;DHT22;3555;53.248;10.336;2023-03-03T01:35:45;3.80;1.00
7028;DHT22;3555;53.248;10.336;2023-03-03T01:38:12;3.80;1.00
7028;DHT22;3555;53.248;10.336;2023-03-03T01:40:39;3.70;99.90
7028;DHT22;3555;53.248;10.336;2023-03-03T01:43:07;3.70;1.00
7028;DHT22;3555;53.248;10.336;2023-03-03T01:46:18;3.70;99.90
7028;DHT22;3555;53.248;10.336;2023-03-03T01:48:41;3.60;1.00
7028;DHT22;3555;53.248;10.336;2023-03-03T01:51:16;3.60;1.00
7028;DHT22;3555;53.248;10.336;2023-03-03T01:53:49;3.70;1.00
7028;DHT22;3555;53.248;10.336;2023-03-03T01:56:17;3.80;1.00
7028;DHT22;3555;53.248;10.336;2023-03-03T01:58:48;3.80;99.90
7028;DHT22;3555;53.248;10.336;2023-03-03T02:01:21;3.50;99.90
7028;DHT22;3555;53.248;10.336;2023-03-03T02:03:48;3.40;99.90
7028;DHT22;3555;53.248;10.336;2023-03-03T02:06:21;3.20;67.40
7028;DHT22;3555;53.248;10.336;2023-03-03T02:08:52;3.20;99.90
7028;DHT22;3555;53.248;10.336;2023-03-03T02:11:20;3.30;1.00
7028;DHT22;3555;53.248;10.336;2023-03-03T02:13:49;3.40;99.90
7028;DHT22;3555;53.248;10.336;2023-03-03T02:16:16;3.50;99.90
7028;DHT22;3555;53.248;10.336;2023-03-03T02:18:43;3.50;1.00
7028;DHT22;3555;53.248;10.336;2023-03-03T02:21:14;3.50;8.20
7028;DHT22;3555;53.248;10.336;2023-03-03T02:23:47;3.50;99.90
7028;DHT22;3555;53.248;10.336;2023-03-03T02:26:20;3.60;1.00
7028;DHT22;3555;53.248;10.336;2023-03-03T02:28:48;3.60;1.00
7028;DHT22;3555;53.248;10.336;2023-03-03T02:31:18;3.60;30.50
7028;DHT22;3555;53.248;10.336;2023-03-03T02:33:47;3.60;1.00
7028;DHT22;3555;53.248;10.336;2023-03-03T02:36:16;3.60;1.00
7028;DHT22;3555;53.248;10.336;2023-03-03T02:38:47;3.70;1.00
7028;DHT22;3555;53.248;10.336;2023-03-03T02:41:21;3.60;99.90
7028;DHT22;3555;53.248;10.336;2023-03-03T02:43:54;3.60;1.00
7028;DHT22;3555;53.248;10.336;2023-03-03T02:46:23;3.70;1.00
7028;DHT22;3555;53.248;10.336;2023-03-03T02:48:50;3.70;1.00
7028;DHT22;3555;53.248;10.336;2023-03-03T02:51:17;3.70;99.90
7028;DHT22;3555;53.248;10.336;2023-03-03T02:53:44;3.70;99.90
7028;DHT22;3555;53.248;10.336;2023-03-03T02:56:11;3.80;1.00
7028;DHT22;3555;53.248;10.336;2023-03-03T02:58:40;3.80;1.00
7028;DHT22;3555;53.248;10.336;2023-03-03T03:01:07;3.70;99.90
7028;DHT22;3555;53.248;10.336;2023-03-03T03:03:34;3.50;99.90
7028;DHT22;3555;53.248;10.336;2023-03-03T03:06:01;3.50;1.00
7028;DHT22;3555;53.248;10.336;2023-03-03T03:08:28;3.40;1.00
7028;DHT22;3555;53.248;10.336;2023-03-03T03:10:55;3.40;1.00
7028;DHT22;3555;53.248;10.336;2023-03-03T03:13:23;3.50;1.00
7028;DHT22;3555;53.248;10.336;2023-03-03T03:15:52;3.50;99.90
7028;DHT22;3555;53.248;10.336;2023-03-03T03:18:18;3.70;1.00
7028;DHT22;3555;53.248;10.336;2023-03-03T03:20:45;3.70;1.00
7028;DHT22;3555;53.248;10.336;2023-03-03T03:23:12;3.60;99.90
7028;DHT22;3555;53.248;10.336;2023-03-03T03:25:39;3.70;99.90
7028;DHT22;3555;53.248;10.336;2023-03-03T03:28:10;3.70;1.00
7028;DHT22;3555;53.248;10.336;2023-03-03T03:30:37;3.70;1.00
7028;DHT22;3555;53.248;10.336;2023-03-03T03:33:06;3.70;1.00
7028;DHT22;3555;53.248;10.336;2023-03-03T03:35:33;3.60;1.00
7028;DHT22;3555;53.248;10.336;2023-03-03T03:38:01;3.60;1.00
7028;DHT22;3555;53.248;10.336;2023-03-03T03:40:28;3.60;1.00
7028;DHT22;3555;53.248;10.336;2023-03-03T03:42:55;3.70;1.00
7028;DHT22;3555;53.248;10.336;2023-03-03T03:45:22;3.70;1.00
7028;DHT22;3555;53.248;10.336;2023-03-03T03:47:49;3.70;1.00
7028;DHT22;3555;53.248;10.336;2023-03-03T03:50:17;3.70;1.00
7028;DHT22;3555;53.248;10.336;2023-03-03T03:52:44;3.80;99.90
7028;DHT22;3555;53.248;10.336;2023-03-03T03:55:11;3.60;99.90
7028;DHT22;3555;53.248;10.336;2023-03-03T03:57:39;3.60;99.90
7028;DHT22;3555;53.248;10.336;2023-03-03T04:00:07;3.60;99.90
7028;DHT22;3555;53.248;10.336;2023-03-03T04:02:34;3.50;1.00
7028;DHT22;3555;53.248;10.336;2023-03-03T04:05:02;3.50;1.00
7028;DHT22;3555;53.248;10.336;2023-03-03T04:07:30;3.60;1.00
7028;DHT22;3555;53.248;10.336;2023-03-03T04:09:57;3.40;1.00
7028;DHT22;3555;53.248;10.336;2023-03-03T04:12:24;3.30;99.90
7028;DHT22;3555;53.248;10.336;2023-03-03T04:14:51;3.30;2.90
7028;DHT22;3555;53.248;10.336;2023-03-03T04:17:18;3.40;99.90
7028;DHT22;3555;53.248;10.336;2023-03-03T04:19:46;3.40;99.90
7028;DHT22;3555;53.248;10.336;2023-03-03T04:22:13;3.40;1.00
7028;DHT22;3555;53.248;10.336;2023-03-03T04:24:41;3.30;1.00
7028;DHT22;3555;53.248;10.336;2023-03-03T04:27:08;3.40;1.00
7028;DHT22;3555;53.248;10.336;2023-03-03T04:29:36;3.40;1.00
7028;DHT22;3555;53.248;10.336;2023-03-03T04:32:03;3.30;1.00
7028;DHT22;3555;53.248;10.336;2023-03-03T04:34:30;3.30;1.00
7028;DHT22;3555;53.248;10.336;2023-03-03T04:36:56;3.30;1.00
7028;DHT22;3555;53.248;10.336;2023-03-03T04:39:23;3.30;99.90
7028;DHT22;3555;53.248;10.336;2023-03-03T04:41:53;3.30;1.00
7028;DHT22;3555;53.248;10.336;2023-03-03T04:44:19;3.50;1.00
7028;DHT22;3555;53.248;10.336;2023-03-03T04:46:46;3.40;1.00
7028;DHT22;3555;53.248;10.336;2023-03-03T04:49:13;3.30;1.00
7028;DHT22;3555;53.248;10.336;2023-03-03T04:51:40;3.30;1.10
7028;DHT22;3555;53.248;10.336;2023-03-03T04:54:07;3.20;1.00
7028;DHT22;3555;53.248;10.336;2023-03-03T04:56:34;3.30;99.90
7028;DHT22;3555;53.248;10.336;2023-03-03T04:59:02;3.30;1.00
7028;DHT22;3555;53.248;10.336;2023-03-03T05:01:29;3.20;1.00
7028;DHT22;3555;53.248;10.336;2023-03-03T05:03:56;3.00;1.00
7028;DHT22;3555;53.248;10.336;2023-03-03T05:06:22;3.00;1.00
7028;DHT22;3555;53.248;10.336;2023-03-03T05:08:49;3.10;99.90
7028;DHT22;3555;53.248;10.336;2023-03-03T05:11:16;3.20;99.90
7028;DHT22;3555;53.248;10.336;2023-03-03T05:13:43;3.00;1.00
7028;DHT22;3555;53.248;10.336;2023-03-03T05:16:11;3.10;1.00
7028;DHT22;3555;53.248;10.336;2023-03-03T05:18:38;3.10;1.00
7028;DHT22;3555;53.248;10.336;2023-03-03T05:21:06;3.10;1.00
7028;DHT22;3555;53.248;10.336;2023-03-03T05:23:33;3.00;1.00
7028;DHT22;3555;53.248;10.336;2023-03-03T05:26:00;3.10;1.00
7028;DHT22;3555;53.248;10.336;2023-03-03T05:28:27;3.20;1.00
7028;DHT22;3555;53.248;10.336;2023-03-03T05:30:54;3.00;1.00
7028;DHT22;3555;53.248;10.336;2023-03-03T05:33:22;2.90;99.90
7028;DHT22;3555;53.248;10.336;2023-03-03T05:35:53;3.00;99.90
7028;DHT22;3555;53.248;10.336;2023-03-03T05:38:20;2.90;99.90
7028;DHT22;3555;53.248;10.336;2023-03-03T05:40:47;2.90;1.00
7028;DHT22;3555;53.248;10.336;2023-03-03T05:43:14;2.90;1.00
7028;DHT22;3555;53.248;10.336;2023-03-03T05:45:40;2.90;1.00
7028;DHT22;3555;53.248;10.336;2023-03-03T05:48:07;3.00;1.00
7028;DHT22;3555;53.248;10.336;2023-03-03T05:50:37;2.90;99.90
7028;DHT22;3555;53.248;10.336;2023-03-03T05:53:04;3.10;99.90
7028;DHT22;3555;53.248;10.336;2023-03-03T05:55:31;3.10;13.10
7028;DHT22;3555;53.248;10.336;2023-03-03T05:57:58;3.00;1.00
7028;DHT22;3555;53.248;10.336;2023-03-03T06:00:25;3.10;99.90
7028;DHT22;3555;53.248;10.336;2023-03-03T06:02:52;3.10;1.00
7028;DHT22;3555;53.248;10.336;2023-03-03T06:05:20;3.20;99.90
7028;DHT22;3555;53.248;10.336;2023-03-03T06:07:48;3.20;99.90
7028;DHT22;3555;53.248;10.336;2023-03-03T06:10:15;3.20;99.90
7028;DHT22;3555;53.248;10.336;2023-03-03T06:12:42;3.20;1.00
7028;DHT22;3555;53.248;10.336;2023-03-03T06:15:09;3.40;1.00
7028;DHT22;3555;53.248;10.336;2023-03-03T06:17:37;3.30;1.00
7028;DHT22;3555;53.248;10.336;2023-03-03T06:20:05;3.30;1.00
7028;DHT22;3555;53.248;10.336;2023-03-03T06:22:32;3.10;1.00
7028;DHT22;3555;53.248;10.336;2023-03-03T06:25:00;3.10;1.00
7028;DHT22;3555;53.248;10.336;2023-03-03T06:27:27;3.10;1.00
7028;DHT22;3555;53.248;10.336;2023-03-03T06:29:54;3.10;99.90
7028;DHT22;3555;53.248;10.336;2023-03-03T06:32:20;3.10;99.90
7028;DHT22;3555;53.248;10.336;2023-03-03T06:34:47;3.20;99.90
7028;DHT22;3555;53.248;10.336;2023-03-03T06:37:15;3.20;99.90
7028;DHT22;3555;53.248;10.336;2023-03-03T06:39:42;3.30;99.90
7028;DHT22;3555;53.248;10.336;2023-03-03T06:42:10;3.30;1.00
7028;DHT22;3555;53.248;10.336;2023-03-03T06:44:37;3.30;1.00
7028;DHT22;3555;53.248;10.336;2023-03-03T06:47:04;3.40;1.00
7028;DHT22;3555;53.248;10.336;2023-03-03T06:49:31;3.30;99.90
7028;DHT22;3555;53.248;10.336;2023-03-03T06:52:01;3.40;71.30
7028;DHT22;3555;53.248;10.336;2023-03-03T06:54:31;3.40;1.00
7028;DHT22;3555;53.248;10.336;2023-03-03T06:57:00;3.40;98.00
7028;DHT22;3555;53.248;10.336;2023-03-03T06:59:31;3.40;1.00
7028;DHT22;3555;53.248;10.336;2023-03-03T07:01:57;3.30;1.00
7028;DHT22;3555;53.248;10.336;2023-03-03T07:04:27;3.20;1.00
7028;DHT22;3555;53.248;10.336;2023-03-03T07:06:55;2.90;1.00
7028;DHT22;3555;53.248;10.336;2023-03-03T07:09:26;2.80;99.90
7028;DHT22;3555;53.248;10.336;2023-03-03T07:11:56;2.80;1.00
7028;DHT22;3555;53.248;10.336;2023-03-03T07:14:27;2.90;1.00
7028;DHT22;3555;53.248;10.336;2023-03-03T07:16:58;2.90;99.90
7028;DHT22;3555;53.248;10.336;2023-03-03T07:19:30;2.90;1.00
7028;DHT22;3555;53.248;10.336;2023-03-03T07:22:00;2.90;1.00
7028;DHT22;3555;53.248;10.336;2023-03-03T07:24:32;3.00;1.00
7028;DHT22;3555;53.248;10.336;2023-03-03T07:27:00;3.00;1.00
7028;DHT22;3555;53.248;10.336;2023-03-03T07:29:32;3.10;1.00
7028;DHT22;3555;53.248;10.336;2023-03-03T07:32:02;3.10;1.00
7028;DHT22;3555;53.248;10.336;2023-03-03T07:34:37;3.20;1.00
7028;DHT22;3555;53.248;10.336;2023-03-03T07:37:10;3.10;1.00
7028;DHT22;3555;53.248;10.336;2023-03-03T07:39:41;3.20;1.00
7028;DHT22;3555;53.248;10.336;2023-03-03T07:42:16;3.10;1.00
7028;DHT22;3555;53.248;10.336;2023-03-03T07:44:43;3.20;1.00
7028;DHT22;3555;53.248;10.336;2023-03-03T07:47:18;3.10;1.00
7028;DHT22;3555;53.248;10.336;2023-03-03T07:49:47;3.20;1.00
7028;DHT22;3555;53.248;10.336;2023-03-03T07:52:25;3.00;1.00
7028;DHT22;3555;53.248;10.336;2023-03-03T07:54:55;2.60;1.00
7028;DHT22;3555;53.248;10.336;2023-03-03T07:57:24;2.60;31.30
7028;DHT22;3555;53.248;10.336;2023-03-03T07:59:53;2.50;99.90
7028;DHT22;3555;53.248;10.336;2023-03-03T08:02:37;2.60;99.90
7028;DHT22;3555;53.248;10.336;2023-03-03T08:05:33;2.50;99.90
7028;DHT22;3555;53.248;10.336;2023-03-03T08:08:21;2.60;99.90
7028;DHT22;3555;53.248;10.336;2023-03-03T08:10:54;2.70;99.90
7028;DHT22;3555;53.248;10.336;2023-03-03T08:13:23;2.80;99.90
7028;DHT22;3555;53.248;10.336;2023-03-03T08:15:51;2.90;47.90
7028;DHT22;3555;53.248;10.336;2023-03-03T08:18:28;3.00;1.00
7028;DHT22;3555;53.248;10.336;2023-03-03T08:20:57;3.00;1.00
7028;DHT22;3555;53.248;10.336;2023-03-03T08:23:24;2.90;1.00
7028;DHT22;3555;53.248;10.336;2023-03-03T08:25:51;3.00;1.00
7028;DHT22;3555;53.248;10.336;2023-03-03T08:28:20;3.10;1.00
7028;DHT22;3555;53.248;10.336;2023-03-03T08:30:48;2.80;56.60
7028;DHT22;3555;53.248;10.336;2023-03-03T08:33:15;2.50;1.00
7028;DHT22;3555;53.248;10.336;2023-03-03T08:35:44;2.40;6.20
7028;DHT22;3555;53.248;10.336;2023-03-03T08:38:12;2.30;99.90
7028;DHT22;3555;53.248;10.336;2023-03-03T08:40:40;2.30;99.90
7028;DHT22;3555;53.248;10.336;2023-03-03T08:43:07;2.10;99.90
7028;DHT22;3555;53.248;10.336;2023-03-03T08:45:35;2.00;99.90
7028;DHT22;3555;53.248;10.336;2023-03-03T08:48:02;2.20;99.90
7028;DHT22;3555;53.248;10.336;2023-03-03T08:50:30;2.30;99.90
7028;DHT22;3555;53.248;10.336;2023-03-03T08:52:58;2.50;99.90
7028;DHT22;3555;53.248;10.336;2023-03-03T08:55:25;3.30;99.90
7028;DHT22;3555;53.248;10.336;2023-03-03T08:57:52;2.90;99.90
7028;DHT22;3555;53.248;10.336;2023-03-03T09:00:20;2.90;99.90
7028;DHT22;3555;53.248;10.336;2023-03-03T09:02:47;3.00;92.10
7028;DHT22;3555;53.248;10.336;2023-03-03T09:05:15;3.00;1.00
7028;DHT22;3555;53.248;10.336;2023-03-03T09:07:44;2.90;1.00
7028;DHT22;3555;53.248;10.336;2023-03-03T09:10:15;2.90;1.00
7028;DHT22;3555;53.248;10.336;2023-03-03T09:12:44;2.80;98.30
7028;DHT22;3555;53.248;10.336;2023-03-03T09:15:18;3.10;99.90
7028;DHT22;3555;53.248;10.336;2023-03-03T09:17:45;3.20;1.00
7028;DHT22;3555;53.248;10.336;2023-03-03T09:20:32;2.90;1.00
7028;DHT22;3555;53.248;10.336;2023-03-03T09:23:33;3.00;13.80
7028;DHT22;3555;53.248;10.336;2023-03-03T09:26:31;3.10;1.00
7028;DHT22;3555;53.248;10.336;2023-03-03T09:29:25;3.20;1.00
7028;DHT22;3555;53.248;10.336;2023-03-03T09:31:54;3.30;1.00
7028;DHT22;3555;53.248;10.336;2023-03-03T09:34:24;3.40;99.90
7028;DHT22;3555;53.248;10.336;2023-03-03T09:36:53;3.30;1.00
7028;DHT22;3555;53.248;10.336;2023-03-03T09:39:23;3.10;1.00
7028;DHT22;3555;53.248;10.336;2023-03-03T09:45:23;3.10;1.00
7028;DHT22;3555;53.248;10.336;2023-03-03T09:48:14;3.30;1.00
7028;DHT22;3555;53.248;10.336;2023-03-03T09:50:51;3.40;79.10
7028;DHT22;3555;53.248;10.336;2023-03-03T09:53:32;3.60;1.00
7028;DHT22;3555;53.248;10.336;2023-03-03T09:56:12;3.30;1.00
7028;DHT22;3555;53.248;10.336;2023-03-03T09:58:55;3.50;1.00
7028;DHT22;3555;53.248;10.336;2023-03-03T10:01:42;3.80;1.00
7028;DHT22;3555;53.248;10.336;2023-03-03T10:04:37;3.80;1.00
7028;DHT22;3555;53.248;10.336;2023-03-03T10:07:20;3.60;1.00
7028;DHT22;3555;53.248;10.336;2023-03-03T10:10:22;3.70;1.00
7028;DHT22;3555;53.248;10.336;2023-03-03T10:13:00;3.90;1.00
7028;DHT22;3555;53.248;10.336;2023-03-03T10:15:38;4.10;1.00
7028;DHT22;3555;53.248;10.336;2023-03-03T10:18:15;4.10;1.00
7028;DHT22;3555;53.248;10.336;2023-03-03T10:20:51;4.20;1.00
7028;DHT22;3555;53.248;10.336;2023-03-03T10:23:23;3.90;1.00
7028;DHT22;3555;53.248;10.336;2023-03-03T10:26:03;3.70;1.00
7028;DHT22;3555;53.248;10.336;2023-03-03T10:29:06;3.50;99.90
7028;DHT22;3555;53.248;10.336;2023-03-03T10:31:49;3.70;1.00
7028;DHT22;3555;53.248;10.336;2023-03-03T10:34:29;4.00;1.00
7028;DHT22;3555;53.248;10.336;2023-03-03T10:37:02;4.10;1.00
7028;DHT22;3555;53.248;10.336;2023-03-03T10:39:44;4.40;1.00
7028;DHT22;3555;53.248;10.336;2023-03-03T10:45:29;4.70;1.00
7028;DHT22;3555;53.248;10.336;2023-03-03T10:48:15;4.70;99.90
7028;DHT22;3555;53.248;10.336;2023-03-03T10:50:50;4.40;99.90
7028;DHT22;3555;53.248;10.336;2023-03-03T10:53:21;4.40;1.00
7028;DHT22;3555;53.248;10.336;2023-03-03T10:56:14;4.30;1.00
7028;DHT22;3555;53.248;10.336;2023-03-03T10:59:02;4.40;1.00
7028;DHT22;3555;53.248;10.336;2023-03-03T11:01:44;4.60;1.00
7028;DHT22;3555;53.248;10.336;2023-03-03T11:04:24;4.60;99.90
7028;DHT22;3555;53.248;10.336;2023-03-03T11:07:00;4.80;99.90
7028;DHT22;3555;53.248;10.336;2023-03-03T11:10:00;5.00;1.00
7028;DHT22;3555;53.248;10.336;2023-03-03T11:12:40;5.00;19.00
7028;DHT22;3555;53.248;10.336;2023-03-03T11:15:28;5.00;99.90
7028;DHT22;3555;53.248;10.336;2023-03-03T11:18:06;5.10;99.90
7028;DHT22;3555;53.248;10.336;2023-03-03T11:20:40;5.10;5.80
7028;DHT22;3555;53.248;10.336;2023-03-03T11:26:08;5.40;99.90
7028;DHT22;3555;53.248;10.336;2023-03-03T11:28:49;5.30;1.00
7028;DHT22;3555;53.248;10.336;2023-03-03T11:31:25;5.40;99.90
7028;DHT22;3555;53.248;10.336;2023-03-03T11:34:00;5.40;1.00
7028;DHT22;3555;53.248;10.336;2023-03-03T11:36:32;5.50;99.90
7028;DHT22;3555;53.248;10.336;2023-03-03T11:39:03;5.70;99.90
7028;DHT22;3555;53.248;10.336;2023-03-03T11:41:34;6.00;1.00
7028;DHT22;3555;53.248;10.336;2023-03-03T11:44:09;6.10;99.90
7028;DHT22;3555;53.248;10.336;2023-03-03T11:46:43;6.30;1.00
7028;DHT22;3555;53.248;10.336;2023-03-03T11:49:16;6.70;99.90
7028;DHT22;3555;53.248;10.336;2023-03-03T11:51:50;6.50;69.50
7028;DHT22;3555;53.248;10.336;2023-03-03T11:54:22;6.40;1.00
7028;DHT22;3555;53.248;10.336;2023-03-03T11:56:52;6.50;99.90
7028;DHT22;3555;53.248;10.336;2023-03-03T11:59:43;6.70;99.90
7028;DHT22;3555;53.248;10.336;2023-03-03T12:02:26;7.00;99.90
7028;DHT22;3555;53.248;10.336;2023-03-03T12:05:02;7.20;1.00
7028;DHT22;3555;53.248;10.336;2023-03-03T12:07:38;7.50;99.90
7028;DHT22;3555;53.248;10.336;2023-03-03T12:10:23;7.60;1.00
7028;DHT22;3555;53.248;10.336;2023-03-03T12:13:01;7.80;1.00
7028;DHT22;3555;53.248;10.336;2023-03-03T12:15:35;7.90;1.00
7028;DHT22;3555;53.248;10.336;2023-03-03T12:21:09;8.40;1.00
7028;DHT22;3555;53.248;10.336;2023-03-03T12:24:01;8.40;1.00
7028;DHT22;3555;53.248;10.336;2023-03-03T12:26:35;8.60;1.00
7028;DHT22;3555;53.248;10.336;2023-03-03T12:29:11;8.70;1.00
7028;DHT22;3555;53.248;10.336;2023-03-03T12:31:47;8.60;1.00
7028;DHT22;3555;53.248;10.336;2023-03-03T12:34:21;8.90;1.00
7028;DHT22;3555;53.248;10.336;2023-03-03T12:37:19;9.30;1.00
7028;DHT22;3555;53.248;10.336;2023-03-03T12:39:56;9.50;1.00
7028;DHT22;3555;53.248;10.336;2023-03-03T12:42:40;9.70;1.00
7028;DHT22;3555;53.248;10.336;2023-03-03T12:45:28;9.70;99.90
7028;DHT22;3555;53.248;10.336;2023-03-03T12:48:00;9.80;99.90
7028;DHT22;3555;53.248;10.336;2023-03-03T12:50:38;9.30;99.90
7028;DHT22;3555;53.248;10.336;2023-03-03T12:53:20;9.30;99.90
7028;DHT22;3555;53.248;10.336;2023-03-03T12:55:53;9.10;99.90
7028;DHT22;3555;53.248;10.336;2023-03-03T12:58:30;9.00;99.90
7028;DHT22;3555;53.248;10.336;2023-03-03T13:01:09;8.90;99.90
7028;DHT22;3555;53.248;10.336;2023-03-03T13:03:48;9.00;1.00
7028;DHT22;3555;53.248;10.336;2023-03-03T13:06:24;9.00;99.90
7028;DHT22;3555;53.248;10.336;2023-03-03T13:09:03;8.60;99.90
7028;DHT22;3555;53.248;10.336;2023-03-03T13:11:41;8.40;99.90
7028;DHT22;3555;53.248;10.336;2023-03-03T13:14:19;8.30;1.00
7028;DHT22;3555;53.248;10.336;2023-03-03T13:16:55;8.20;1.00
7028;DHT22;3555;53.248;10.336;2023-03-03T13:19:26;8.10;1.00
7028;DHT22;3555;53.248;10.336;2023-03-03T13:22:00;7.90;1.00
7028;DHT22;3555;53.248;10.336;2023-03-03T13:24:38;7.70;1.00
7028;DHT22;3555;53.248;10.336;2023-03-03T13:27:11;7.20;1.00
7028;DHT22;3555;53.248;10.336;2023-03-03T13:29:41;6.90;1.00
7028;DHT22;3555;53.248;10.336;2023-03-03T13:32:13;6.90;1.00
7028;DHT22;3555;53.248;10.336;2023-03-03T13:34:48;7.00;1.00
7028;DHT22;3555;53.248;10.336;2023-03-03T13:37:20;7.00;1.00
7028;DHT22;3555;53.248;10.336;2023-03-03T13:39:55;6.80;1.00
7028;DHT22;3555;53.248;10.336;2023-03-03T13:42:28;6.90;1.00
7028;DHT22;3555;53.248;10.336;2023-03-03T13:45:00;6.80;1.00
7028;DHT22;3555;53.248;10.336;2023-03-03T13:47:34;6.80;1.00
7028;DHT22;3555;53.248;10.336;2023-03-03T13:50:16;6.90;99.90
7028;DHT22;3555;53.248;10.336;2023-03-03T13:52:53;6.60;1.00
7028;DHT22;3555;53.248;10.336;2023-03-03T13:55:28;6.80;99.90
7028;DHT22;3555;53.248;10.336;2023-03-03T13:58:01;6.80;1.00
7028;DHT22;3555;53.248;10.336;2023-03-03T14:00:43;6.80;1.00
7028;DHT22;3555;53.248;10.336;2023-03-03T14:03:23;6.80;19.20
7028;DHT22;3555;53.248;10.336;2023-03-03T14:05:58;6.90;74.70
7028;DHT22;3555;53.248;10.336;2023-03-03T14:08:38;6.80;1.00
7028;DHT22;3555;53.248;10.336;2023-03-03T14:11:15;6.80;8.10
7028;DHT22;3555;53.248;10.336;2023-03-03T14:13:56;6.80;14.20
7028;DHT22;3555;53.248;10.336;2023-03-03T14:16:37;6.80;99.90
7028;DHT22;3555;53.248;10.336;2023-03-03T14:19:10;7.10;99.90
7028;DHT22;3555;53.248;10.336;2023-03-03T14:21:42;7.60;96.70
7028;DHT22;3555;53.248;10.336;2023-03-03T14:24:16;7.50;1.00
7028;DHT22;3555;53.248;10.336;2023-03-03T14:26:49;7.70;1.00
7028;DHT22;3555;53.248;10.336;2023-03-03T14:29:21;7.60;1.00
7028;DHT22;3555;53.248;10.336;2023-03-03T14:31:48;7.70;1.00
7028;DHT22;3555;53.248;10.336;2023-03-03T14:34:33;7.80;1.00
7028;DHT22;3555;53.248;10.336;2023-03-03T14:37:20;7.80;1.00
7028;DHT22;3555;53.248;10.336;2023-03-03T14:39:59;8.10;1.00
7028;DHT22;3555;53.248;10.336;2023-03-03T14:42:34;7.80;1.00
7028;DHT22;3555;53.248;10.336;2023-03-03T14:45:19;8.00;1.00
7028;DHT22;3555;53.248;10.336;2023-03-03T14:47:46;7.90;1.00
7028;DHT22;3555;53.248;10.336;2023-03-03T14:50:31;8.00;1.00
7028;DHT22;3555;53.248;10.336;2023-03-03T14:53:10;8.10;1.00
7028;DHT22;3555;53.248;10.336;2023-03-03T14:55:40;8.20;1.00
7028;DHT22;3555;53.248;10.336;2023-03-03T14:58:30;8.20;1.00
7028;DHT22;3555;53.248;10.336;2023-03-03T15:01:22;8.30;1.00
7028;DHT22;3555;53.248;10.336;2023-03-03T15:03:58;8.30;1.00
7028;DHT22;3555;53.248;10.336;2023-03-03T15:06:32;8.30;1.00
7028;DHT22;3555;53.248;10.336;2023-03-03T15:09:29;8.10;1.00
7028;DHT22;3555;53.248;10.336;2023-03-03T15:11:59;8.00;1.00
7028;DHT22;3555;53.248;10.336;2023-03-03T15:14:34;8.10;1.00
7028;DHT22;3555;53.248;10.336;2023-03-03T15:17:28;7.80;1.00
7028;DHT22;3555;53.248;10.336;2023-03-03T15:20:36;7.50;1.00
7028;DHT22;3555;53.248;10.336;2023-03-03T15:23:22;7.40;1.00
7028;DHT22;3555;53.248;10.336;2023-03-03T15:25:57;7.30;1.00
7028;DHT22;3555;53.248;10.336;2023-03-03T15:28:34;7.40;1.00
7028;DHT22;3555;53.248;10.336;2023-03-03T15:31:08;7.40;1.00
7028;DHT22;3555;53.248;10.336;2023-03-03T15:33:45;7.30;1.00
7028;DHT22;3555;53.248;10.336;2023-03-03T15:36:21;7.20;1.00
7028;DHT22;3555;53.248;10.336;2023-03-03T15:39:01;7.30;1.00
7028;DHT22;3555;53.248;10.336;2023-03-03T15:41:37;7.30;1.00
7028;DHT22;3555;53.248;10.336;2023-03-03T15:44:13;7.20;1.00
7028;DHT22;3555;53.248;10.336;2023-03-03T15:46:53;7.30;1.00
7028;DHT22;3555;53.248;10.336;2023-03-03T15:49:41;7.20;1.00
7028;DHT22;3555;53.248;10.336;2023-03-03T15:52:21;7.20;1.00
7028;DHT22;3555;53.248;10.336;2023-03-03T15:55:04;7.10;1.00
7028;DHT22;3555;53.248;10.336;2023-03-03T15:57:43;7.10;1.00
7028;DHT22;3555;53.248;10.336;2023-03-03T16:03:13;7.10;1.00
7028;DHT22;3555;53.248;10.336;2023-03-03T16:05:49;7.20;1.00
7028;DHT22;3555;53.248;10.336;2023-03-03T16:08:21;7.30;1.00
7028;DHT22;3555;53.248;10.336;2023-03-03T16:10:56;7.40;1.00
7028;DHT22;3555;53.248;10.336;2023-03-03T16:16:40;7.20;1.00
7028;DHT22;3555;53.248;10.336;2023-03-03T16:19:19;7.00;1.00
7028;DHT22;3555;53.248;10.336;2023-03-03T16:22:15;6.90;1.00
7028;DHT22;3555;53.248;10.336;2023-03-03T16:24:54;6.90;1.00
7028;DHT22;3555;53.248;10.336;2023-03-03T16:27:28;7.00;1.00
7028;DHT22;3555;53.248;10.336;2023-03-03T16:30:09;7.00;1.00
7028;DHT22;3555;53.248;10.336;2023-03-03T16:32:43;7.00;1.00
7028;DHT22;3555;53.248;10.336;2023-03-03T16:35:20;6.90;1.00
7028;DHT22;3555;53.248;10.336;2023-03-03T16:37:55;6.80;1.00
7028;DHT22;3555;53.248;10.336;2023-03-03T16:40:25;6.70;1.00
7028;DHT22;3555;53.248;10.336;2023-03-03T16:42:58;6.60;1.00
7028;DHT22;3555;53.248;10.336;2023-03-03T16:45:33;6.70;1.00
7028;DHT22;3555;53.248;10.336;2023-03-03T16:48:25;6.70;1.00
7028;DHT22;3555;53.248;10.336;2023-03-03T16:51:09;6.50;1.00
7028;DHT22;3555;53.248;10.336;2023-03-03T16:53:56;6.50;1.00
7028;DHT22;3555;53.248;10.336;2023-03-03T16:56:32;6.40;1.00
7028;DHT22;3555;53.248;10.336;2023-03-03T17:02:00;6.40;1.00
7028;DHT22;3555;53.248;10.336;2023-03-03T17:04:35;6.30;1.00
7028;DHT22;3555;53.248;10.336;2023-03-03T17:07:16;6.40;1.00
7028;DHT22;3555;53.248;10.336;2023-03-03T17:12:42;6.40;1.00
7028;DHT22;3555;53.248;10.336;2023-03-03T17:15:21;6.30;1.00